createdAt,value
2022-10-05T00:02:58.655Z,1.00
2022-10-05T00:06:23.148Z,1.00
2022-10-05T00:09:47.137Z,1.00
2022-10-05T00:13:13.746Z,1.00
2022-10-05T00:16:36.609Z,1.00
2022-10-05T00:19:59.514Z,1.00
2022-10-05T00:23:27.251Z,1.00
2022-10-05T00:26:54.114Z,1.00
2022-10-05T00:30:22.305Z,1.00
2022-10-05T00:33:45.240Z,1.00
2022-10-05T00:37:08.513Z,1.00
2022-10-05T00:40:46.593Z,1.00
2022-10-05T00:44:25.772Z,1.00
2022-10-05T00:47:58.606Z,1.00
2022-10-05T00:51:26.088Z,1.00
2022-10-05T00:54:57.260Z,1.00
2022-10-05T00:58:31.301Z,1.00
2022-10-05T01:02:01.972Z,1.00
2022-10-05T01:05:40.773Z,1.00
2022-10-05T01:09:14.174Z,1.00
2022-10-05T01:12:43.773Z,1.00
2022-10-05T01:16:15.999Z,1.00
2022-10-05T01:20:03.554Z,1.00
2022-10-05T01:24:11.638Z,1.00
2022-10-05T01:27:42.457Z,1.00
2022-10-05T01:31:11.445Z,1.00
2022-10-05T01:34:39.594Z,1.00
2022-10-05T01:38:15.177Z,1.00
2022-10-05T01:41:44.963Z,1.00
2022-10-05T01:45:15.649Z,1.00
2022-10-05T01:48:56.601Z,1.00
2022-10-05T01:52:31.901Z,1.00
2022-10-05T01:56:03.468Z,1.00
2022-10-05T01:59:38.723Z,1.00
2022-10-05T02:03:09.140Z,1.00
2022-10-05T02:06:37.689Z,1.00
2022-10-05T02:10:03.513Z,1.00
2022-10-05T02:13:31.645Z,1.00
2022-10-05T02:16:58.719Z,1.00
2022-10-05T02:20:26.618Z,1.00
2022-10-05T02:23:53.104Z,1.00
2022-10-05T02:27:22.627Z,1.00
2022-10-05T02:30:51.264Z,1.20
2022-10-05T02:34:22.580Z,1.00
2022-10-05T02:37:57.727Z,1.00
2022-10-05T02:41:35.253Z,2.10
2022-10-05T02:45:08.397Z,2.50
2022-10-05T02:48:43.705Z,2.30
2022-10-05T02:52:12.696Z,2.80
2022-10-05T02:55:46.907Z,3.80
2022-10-05T02:59:16.164Z,4.10
2022-10-05T03:02:44.977Z,4.80
2022-10-05T03:06:16.578Z,7.10
2022-10-05T03:09:44.977Z,7.60
2022-10-05T03:13:18.124Z,8.60
2022-10-05T03:16:55.021Z,9.00
2022-10-05T03:20:31.338Z,9.90
2022-10-05T03:24:13.341Z,10.90
2022-10-05T03:27:43.210Z,13.00
2022-10-05T03:31:18.077Z,13.40
2022-10-05T03:34:47.477Z,13.20
2022-10-05T03:38:18.990Z,13.10
2022-10-05T03:41:48.350Z,13.10
2022-10-05T03:45:24.064Z,13.40
2022-10-05T03:48:56.466Z,14.70
2022-10-05T03:52:25.085Z,14.40
2022-10-05T03:55:52.763Z,15.40
2022-10-05T03:59:19.218Z,15.30
2022-10-05T04:02:47.916Z,16.00
2022-10-05T04:06:18.928Z,16.10
2022-10-05T04:09:47.643Z,16.90
2022-10-05T04:13:17.257Z,18.00
2022-10-05T04:16:45.908Z,20.10
2022-10-05T04:20:18.395Z,19.40
2022-10-05T04:23:49.012Z,19.10
2022-10-05T04:27:17.178Z,19.00
2022-10-05T04:30:45.642Z,20.00
2022-10-05T04:34:21.389Z,21.00
2022-10-05T04:37:50.930Z,20.20
2022-10-05T04:41:31.309Z,19.80
2022-10-05T04:45:10.385Z,20.90
2022-10-05T04:49:08.724Z,20.80
2022-10-05T04:52:39.061Z,20.80
2022-10-05T04:56:10.539Z,20.80
2022-10-05T04:59:55.294Z,21.20
2022-10-05T05:03:34.644Z,21.10
2022-10-05T05:07:09.837Z,21.60
2022-10-05T05:10:54.792Z,22.80
2022-10-05T05:14:56.886Z,24.00
2022-10-05T05:18:46.893Z,25.40
2022-10-05T05:22:21.130Z,25.40
2022-10-05T05:25:51.784Z,24.10
2022-10-05T05:29:22.837Z,25.10
2022-10-05T05:33:03.765Z,26.30
2022-10-05T05:36:45.119Z,26.30
2022-10-05T05:40:16.495Z,26.10
2022-10-05T05:43:59.160Z,24.70
2022-10-05T05:47:27.856Z,26.20
2022-10-05T05:50:59.260Z,26.70
2022-10-05T05:54:29.905Z,27.00
2022-10-05T05:57:58.630Z,26.10
2022-10-05T06:01:33.962Z,25.90
2022-10-05T06:05:22.481Z,25.60
2022-10-05T06:08:50.113Z,24.30
2022-10-05T06:12:58.460Z,24.10
2022-10-05T06:16:31.652Z,21.70
2022-10-05T06:20:03.943Z,21.70
2022-10-05T06:23:36.762Z,22.30
2022-10-05T06:27:25.512Z,21.60
2022-10-05T06:31:01.649Z,22.20
2022-10-05T06:34:46.269Z,18.50
2022-10-05T06:38:29.849Z,18.40
2022-10-05T06:42:15.862Z,19.00
2022-10-05T06:46:14.089Z,19.00
2022-10-05T06:50:19.943Z,18.90
2022-10-05T06:54:32.996Z,18.00
2022-10-05T06:58:18.978Z,15.80
2022-10-05T07:01:51.804Z,14.30
2022-10-05T07:05:57.729Z,15.90
2022-10-05T07:09:40.428Z,16.30
2022-10-05T07:13:18.388Z,13.30
2022-10-05T07:16:57.440Z,13.90
2022-10-05T07:20:28.625Z,14.70
2022-10-05T07:24:03.515Z,14.70
2022-10-05T07:27:29.295Z,15.70
2022-10-05T07:30:59.761Z,15.50
2022-10-05T07:34:31.065Z,14.90
2022-10-05T07:37:57.761Z,15.00
2022-10-05T07:41:34.163Z,13.00
2022-10-05T07:45:04.038Z,11.20
2022-10-05T07:48:33.126Z,10.50
2022-10-05T07:52:02.547Z,10.00
2022-10-05T07:55:32.822Z,9.40
2022-10-05T07:59:01.646Z,9.70
2022-10-05T08:02:28.721Z,8.10
2022-10-05T08:05:51.881Z,7.00
2022-10-05T08:09:36.769Z,5.10
2022-10-05T08:13:08.283Z,4.40
2022-10-05T08:16:36.195Z,3.50
2022-10-05T08:20:10.921Z,1.90
2022-10-05T08:23:38.882Z,1.00
2022-10-05T08:27:10.729Z,1.00
2022-10-05T08:30:39.307Z,1.00
2022-10-05T08:34:20.168Z,1.00
2022-10-05T08:37:44.989Z,1.00
2022-10-05T08:41:33.910Z,1.00
2022-10-05T08:45:42.034Z,1.00
2022-10-05T08:49:25.113Z,1.00
2022-10-05T08:53:29.173Z,1.00
2022-10-05T08:57:16.546Z,1.00
2022-10-05T09:00:52.539Z,1.00
2022-10-05T09:04:31.002Z,1.00
2022-10-05T09:08:26.792Z,1.00
2022-10-05T09:12:18.126Z,1.00
2022-10-05T09:16:00.655Z,1.00
2022-10-05T09:19:52.764Z,1.00
2022-10-05T09:23:31.694Z,1.00
2022-10-05T09:27:03.209Z,1.00
2022-10-05T09:30:52.477Z,1.00
2022-10-05T09:35:06.630Z,1.00
2022-10-05T09:38:44.699Z,1.00
2022-10-05T09:42:24.286Z,1.00
2022-10-05T09:46:13.939Z,1.00
2022-10-05T09:49:58.275Z,1.00
2022-10-05T09:53:50.244Z,1.00
2022-10-05T09:57:35.328Z,1.00
2022-10-05T10:01:29.111Z,1.00
2022-10-05T10:05:11.413Z,1.00
2022-10-05T10:08:56.301Z,1.00
2022-10-05T10:12:32.128Z,1.00
2022-10-05T10:16:11.739Z,1.00
2022-10-05T10:19:58.696Z,1.00
2022-10-05T10:24:00.314Z,1.00
2022-10-05T10:27:48.076Z,1.00
2022-10-05T10:31:43.485Z,1.00
2022-10-05T10:35:22.983Z,1.00
2022-10-05T10:38:59.497Z,1.00
2022-10-05T10:42:35.169Z,1.00
2022-10-05T10:46:08.126Z,1.00
2022-10-05T10:49:47.593Z,1.00
2022-10-05T10:53:28.612Z,1.00
2022-10-05T10:57:05.417Z,1.00
2022-10-05T11:00:46.931Z,1.00
2022-10-05T11:04:37.710Z,1.00
2022-10-05T11:08:36.642Z,1.00
2022-10-05T11:12:25.182Z,1.00
2022-10-05T11:16:27.092Z,1.00
2022-10-05T11:20:09.150Z,1.00
2022-10-05T11:24:18.626Z,1.00
2022-10-05T11:28:00.838Z,1.00
2022-10-05T11:32:06.432Z,1.00
2022-10-05T11:35:52.349Z,1.00
2022-10-05T11:39:33.039Z,1.00
2022-10-05T11:43:44.999Z,1.00
2022-10-05T11:47:19.432Z,1.00
2022-10-05T11:50:51.042Z,1.00
2022-10-05T11:54:28.239Z,1.00
2022-10-05T11:57:55.322Z,1.00
2022-10-05T12:01:27.950Z,1.00
2022-10-05T12:05:00.528Z,1.00
2022-10-05T12:08:32.457Z,1.00
2022-10-05T12:12:11.079Z,1.00
2022-10-05T12:15:41.575Z,1.00
2022-10-05T12:19:14.131Z,1.00
2022-10-05T12:22:41.972Z,1.00
2022-10-05T12:26:07.808Z,1.00
2022-10-05T12:29:39.975Z,1.00
2022-10-05T12:33:09.848Z,1.00
2022-10-05T12:37:03.091Z,1.00
2022-10-05T12:40:28.834Z,1.00
2022-10-05T12:44:03.338Z,1.00
2022-10-05T12:47:33.505Z,1.00
2022-10-05T12:51:01.675Z,1.00
2022-10-05T12:54:43.209Z,1.00
2022-10-05T12:58:19.165Z,1.00
2022-10-05T13:01:50.278Z,1.00
2022-10-05T13:05:22.231Z,1.00
2022-10-05T13:08:52.306Z,1.00
2022-10-05T13:12:25.935Z,1.00
2022-10-05T13:15:52.001Z,1.00
2022-10-05T13:19:29.137Z,1.00
2022-10-05T13:22:59.909Z,1.00
2022-10-05T13:26:29.398Z,1.00
2022-10-05T13:29:57.921Z,1.00
2022-10-05T13:33:28.301Z,1.00
2022-10-05T13:37:04.682Z,1.00
2022-10-05T13:40:35.266Z,1.00
2022-10-05T13:44:11.045Z,1.00
2022-10-05T13:47:40.562Z,1.00
2022-10-05T13:51:08.453Z,1.00
2022-10-05T13:54:41.664Z,1.00
2022-10-05T13:58:12.592Z,1.00
2022-10-05T14:01:42.413Z,1.00
2022-10-05T14:05:17.643Z,1.00
2022-10-05T14:08:51.828Z,1.00
2022-10-05T14:12:19.814Z,1.00
2022-10-05T14:15:42.700Z,1.00
2022-10-05T14:19:20.069Z,1.00
2022-10-05T14:22:45.947Z,1.00
2022-10-05T14:26:19.737Z,1.00
2022-10-05T14:29:42.640Z,1.00
2022-10-05T14:33:16.511Z,1.00
2022-10-05T14:36:43.807Z,1.00
2022-10-05T14:40:25.029Z,1.00
2022-10-05T14:43:52.568Z,1.00
2022-10-05T14:47:23.178Z,1.00
2022-10-05T14:50:57.513Z,1.00
2022-10-05T14:54:27.673Z,1.00
2022-10-05T14:58:03.129Z,1.00
2022-10-05T15:01:30.876Z,1.00
2022-10-05T15:05:00.641Z,1.00
2022-10-05T15:08:41.377Z,1.00
2022-10-05T15:12:05.044Z,1.00
2022-10-05T15:15:37.052Z,1.00
2022-10-05T15:19:08.345Z,1.00
2022-10-05T15:22:41.210Z,1.00
2022-10-05T15:26:18.556Z,1.00
2022-10-05T15:29:52.440Z,1.00
2022-10-05T15:33:24.570Z,1.00
2022-10-05T15:36:53.784Z,1.00
2022-10-05T15:40:22.072Z,1.00
2022-10-05T15:43:53.874Z,1.00
2022-10-05T15:47:23.455Z,1.00
2022-10-05T15:50:56.864Z,1.00
2022-10-05T15:54:42.650Z,1.00
2022-10-05T15:58:22.002Z,1.00
2022-10-05T16:01:51.871Z,1.00
2022-10-05T16:05:42.249Z,1.00
2022-10-05T16:09:17.769Z,1.00
2022-10-05T16:12:50.673Z,1.00
2022-10-05T16:16:22.104Z,1.00
2022-10-05T16:19:54.269Z,1.00
2022-10-05T16:23:28.037Z,1.00
2022-10-05T16:26:58.198Z,1.00
2022-10-05T16:30:23.025Z,1.00
2022-10-05T16:33:59.871Z,1.00
2022-10-05T16:37:32.567Z,1.00
2022-10-05T16:41:02.673Z,1.00
2022-10-05T16:44:39.576Z,1.00
2022-10-05T16:48:07.107Z,1.00
2022-10-05T16:51:36.116Z,1.00
2022-10-05T16:55:03.653Z,1.00
2022-10-05T16:58:32.060Z,1.00
2022-10-05T17:02:05.649Z,1.00
2022-10-05T17:05:55.577Z,1.00
2022-10-05T17:09:46.810Z,1.00
2022-10-05T17:13:24.197Z,1.00
2022-10-05T17:16:58.645Z,1.00
2022-10-05T17:20:32.578Z,1.00
2022-10-05T17:23:59.705Z,1.00
2022-10-05T17:27:32.257Z,1.00
2022-10-05T17:31:12.903Z,1.00
2022-10-05T17:34:38.627Z,1.00
2022-10-05T17:38:21.672Z,1.00
2022-10-05T17:41:45.306Z,1.00
2022-10-05T17:45:41.718Z,1.00
2022-10-05T17:49:19.755Z,1.00
2022-10-05T17:53:02.799Z,1.00
2022-10-05T17:56:25.901Z,1.00
2022-10-05T17:59:59.229Z,1.00
2022-10-05T18:03:37.634Z,1.00
2022-10-05T18:07:20.729Z,1.00
2022-10-05T18:11:12.183Z,1.00
2022-10-05T18:15:03.040Z,1.00
2022-10-05T18:18:58.232Z,1.00
2022-10-05T18:22:30.298Z,1.00
2022-10-05T18:25:57.076Z,1.00
2022-10-05T18:29:54.026Z,1.00
2022-10-05T18:33:43.206Z,1.00
2022-10-05T18:37:21.470Z,1.00
2022-10-05T18:40:54.299Z,1.00
2022-10-05T18:44:32.645Z,1.00
2022-10-05T18:48:08.918Z,1.00
2022-10-05T18:51:40.093Z,1.00
2022-10-05T18:55:13.432Z,1.00
2022-10-05T18:58:45.172Z,1.00
2022-10-05T19:02:20.851Z,1.00
2022-10-05T19:05:51.179Z,1.00
2022-10-05T19:09:26.674Z,1.00
2022-10-05T19:13:03.660Z,1.00
2022-10-05T19:16:41.948Z,1.00
2022-10-05T19:20:18.115Z,1.00
2022-10-05T19:24:04.365Z,1.00
2022-10-05T19:27:38.670Z,1.00
2022-10-05T19:31:17.415Z,1.00
2022-10-05T19:34:52.849Z,1.00
2022-10-05T19:38:26.229Z,1.00
2022-10-05T19:42:06.209Z,1.00
2022-10-05T19:45:32.791Z,1.00
2022-10-05T19:48:55.762Z,1.00
2022-10-05T19:52:23.860Z,1.00
2022-10-05T19:55:48.201Z,1.00
2022-10-05T19:59:13.496Z,1.00
2022-10-05T20:02:39.956Z,1.00
2022-10-05T20:06:07.160Z,1.00
2022-10-05T20:09:31.289Z,1.00
2022-10-05T20:12:57.507Z,1.00
2022-10-05T20:16:45.952Z,1.00
2022-10-05T20:20:31.349Z,1.00
2022-10-05T20:24:07.494Z,1.00
2022-10-05T20:27:43.816Z,1.00
2022-10-05T20:31:08.842Z,1.00
2022-10-05T20:34:34.082Z,1.00
2022-10-05T20:37:59.219Z,1.00
2022-10-05T20:41:22.110Z,1.00
2022-10-05T20:44:45.518Z,1.00
2022-10-05T20:48:10.132Z,1.00
2022-10-05T20:51:33.034Z,1.00
2022-10-05T20:54:58.821Z,1.00
2022-10-05T20:58:21.941Z,1.00
2022-10-05T21:01:47.937Z,1.00
2022-10-05T21:05:12.292Z,1.00
2022-10-05T21:08:36.191Z,1.00
2022-10-05T21:11:59.593Z,1.00
2022-10-05T21:15:23.306Z,1.00
2022-10-05T21:18:48.623Z,1.00
2022-10-05T21:22:13.010Z,1.00
2022-10-05T21:25:35.924Z,1.00
2022-10-05T21:28:59.704Z,1.00
2022-10-05T21:32:22.616Z,1.00
2022-10-05T21:35:45.501Z,1.00
2022-10-05T21:39:09.862Z,1.00
2022-10-05T21:42:32.953Z,1.00
2022-10-05T21:45:56.547Z,1.00
2022-10-05T21:49:20.125Z,1.00
2022-10-05T21:52:43.352Z,1.00
2022-10-05T21:56:13.477Z,1.00
2022-10-05T21:59:36.405Z,1.00
2022-10-05T22:02:59.329Z,1.00
2022-10-05T22:06:22.213Z,1.00
2022-10-05T22:09:45.338Z,1.00
2022-10-05T22:13:09.620Z,1.00
2022-10-05T22:16:35.128Z,1.00
2022-10-05T22:19:59.290Z,1.00
2022-10-05T22:23:22.197Z,1.00
2022-10-05T22:26:48.171Z,1.00
2022-10-05T22:30:14.693Z,1.00
2022-10-05T22:33:38.045Z,1.00
2022-10-05T22:37:02.881Z,1.00
2022-10-05T22:40:25.765Z,1.00
2022-10-05T22:43:50.145Z,1.00
2022-10-05T22:47:14.517Z,1.00
2022-10-05T22:50:37.413Z,1.00
2022-10-05T22:54:00.289Z,1.00
2022-10-05T22:57:23.161Z,1.00
2022-10-05T23:00:58.120Z,1.00
2022-10-05T23:04:22.869Z,1.00
2022-10-05T23:07:47.480Z,1.00
2022-10-05T23:11:12.845Z,1.00
2022-10-05T23:14:35.768Z,1.00
2022-10-05T23:17:59.069Z,1.00
2022-10-05T23:21:24.957Z,1.00
2022-10-05T23:24:47.973Z,1.00
2022-10-05T23:28:10.894Z,1.00
2022-10-05T23:31:34.400Z,1.00
2022-10-05T23:34:57.298Z,1.00
2022-10-05T23:38:22.369Z,1.00
2022-10-05T23:41:45.246Z,1.00
2022-10-05T23:45:09.767Z,1.00
2022-10-05T23:48:32.969Z,1.00
2022-10-05T23:51:55.824Z,1.00
2022-10-05T23:55:20.068Z,1.00
2022-10-05T23:58:42.971Z,1.00
